createdAt,value
2023-05-04T00:01:18.754Z,100974.84
2023-05-04T00:03:47.960Z,100966.41
2023-05-04T00:06:21.241Z,100967.38
2023-05-04T00:08:49.257Z,100966.53
2023-05-04T00:11:18.796Z,100960.88
2023-05-04T00:13:46.663Z,100944.81
2023-05-04T00:16:15.262Z,100964.56
2023-05-04T00:18:43.904Z,100966.56
2023-05-04T00:21:12.417Z,100970.59
2023-05-04T00:23:43.306Z,100966.03
2023-05-04T00:26:11.312Z,100949.03
2023-05-04T00:28:42.354Z,100961.59
2023-05-04T00:31:15.023Z,100961.84
2023-05-04T00:33:43.296Z,100951.84
2023-05-04T00:36:13.838Z,100952.88
2023-05-04T00:38:51.794Z,100953.28
2023-05-04T00:41:22.483Z,100949.44
2023-05-04T00:43:50.815Z,100953.84
2023-05-04T00:46:20.847Z,100957.00
2023-05-04T00:48:52.180Z,100942.22
2023-05-04T00:51:21.897Z,100945.78
2023-05-04T00:53:54.132Z,100947.03
2023-05-04T00:56:29.017Z,100920.88
2023-05-04T00:58:58.384Z,100918.84
2023-05-04T01:01:26.885Z,100929.03
2023-05-04T01:03:57.107Z,100934.63
2023-05-04T01:06:35.945Z,100930.25
2023-05-04T01:09:12.252Z,100938.13
2023-05-04T01:11:45.563Z,100922.84
2023-05-04T01:14:17.762Z,100927.63
2023-05-04T01:16:48.796Z,100930.91
2023-05-04T01:19:18.212Z,100925.25
2023-05-04T01:21:47.989Z,100929.84
2023-05-04T01:24:16.320Z,100923.97
2023-05-04T01:26:53.455Z,100926.94
2023-05-04T01:29:28.793Z,100927.34
2023-05-04T01:32:01.460Z,100928.53
2023-05-04T01:34:30.322Z,100924.47
2023-05-04T01:37:00.824Z,100897.56
2023-05-04T01:39:35.450Z,100902.41
2023-05-04T01:42:07.350Z,100924.78
2023-05-04T01:44:35.979Z,100925.38
2023-05-04T01:47:04.489Z,100931.16
2023-05-04T01:49:33.159Z,100926.00
2023-05-04T01:52:05.677Z,100927.69
2023-05-04T01:54:36.997Z,100928.81
2023-05-04T01:57:05.974Z,100929.00
2023-05-04T01:59:36.339Z,100931.16
2023-05-04T02:02:05.322Z,100902.06
2023-05-04T02:04:34.006Z,100930.31
2023-05-04T02:07:04.620Z,100930.25
2023-05-04T02:09:35.478Z,100929.41
2023-05-04T02:12:05.354Z,100927.84
2023-05-04T02:14:34.355Z,100932.97
2023-05-04T02:17:03.264Z,100914.34
2023-05-04T02:19:34.789Z,100928.28
2023-05-04T02:22:04.715Z,100929.94
2023-05-04T02:24:32.651Z,100938.19
2023-05-04T02:27:01.881Z,100932.06
2023-05-04T02:29:31.258Z,100935.38
2023-05-04T02:32:00.045Z,100903.75
2023-05-04T02:34:30.457Z,100923.59
2023-05-04T02:37:02.133Z,100921.13
2023-05-04T02:39:32.595Z,100920.75
2023-05-04T02:42:01.536Z,100903.16
2023-05-04T02:44:31.393Z,100920.69
2023-05-04T02:47:02.839Z,100927.25
2023-05-04T02:49:31.863Z,100928.34
2023-05-04T02:51:59.999Z,100932.72
2023-05-04T02:54:28.624Z,100934.88
2023-05-04T02:56:59.088Z,100913.56
2023-05-04T02:59:37.779Z,100922.50
2023-05-04T03:02:07.131Z,100923.69
2023-05-04T03:04:37.923Z,100917.34
2023-05-04T03:07:06.104Z,100913.06
2023-05-04T03:09:34.395Z,100920.28
2023-05-04T03:12:09.073Z,100919.56
2023-05-04T03:14:37.055Z,100918.41
2023-05-04T03:17:05.095Z,100908.91
2023-05-04T03:19:33.520Z,100912.03
2023-05-04T03:22:03.001Z,100907.72
2023-05-04T03:24:33.466Z,100890.81
2023-05-04T03:27:01.830Z,100890.44
2023-05-04T03:29:33.821Z,100904.88
2023-05-04T03:32:03.158Z,100915.81
2023-05-04T03:34:31.711Z,100917.50
2023-05-04T03:37:08.202Z,100914.69
2023-05-04T03:39:36.570Z,100911.50
2023-05-04T03:42:05.148Z,100902.38
2023-05-04T03:44:37.260Z,100910.81
2023-05-04T03:47:07.878Z,100905.00
2023-05-04T03:49:36.947Z,100900.72
2023-05-04T03:52:07.602Z,100904.16
2023-05-04T03:54:35.494Z,100896.72
2023-05-04T03:57:06.325Z,100904.75
2023-05-04T03:59:37.217Z,100908.72
2023-05-04T04:02:08.436Z,100906.84
2023-05-04T04:04:37.310Z,100889.91
2023-05-04T04:07:05.421Z,100891.94
2023-05-04T04:09:35.246Z,100904.00
2023-05-04T04:12:04.041Z,100903.94
2023-05-04T04:14:32.894Z,100894.53
2023-05-04T04:17:03.468Z,100888.94
2023-05-04T04:19:32.670Z,100899.91
2023-05-04T04:22:04.797Z,100881.88
2023-05-04T04:24:36.892Z,100891.69
2023-05-04T04:27:06.043Z,100899.38
2023-05-04T04:29:35.617Z,100892.03
2023-05-04T04:32:05.589Z,100892.94
2023-05-04T04:34:34.125Z,100888.84
2023-05-04T04:37:05.164Z,100899.81
2023-05-04T04:39:34.094Z,100892.75
2023-05-04T04:42:11.240Z,100888.34
2023-05-04T04:44:39.289Z,100888.69
2023-05-04T04:47:13.966Z,100908.06
2023-05-04T04:49:50.336Z,100902.59
2023-05-04T04:52:20.886Z,100910.78
2023-05-04T04:54:49.078Z,100914.31
2023-05-04T04:57:17.046Z,100906.78
2023-05-04T04:59:51.738Z,100919.56
2023-05-04T05:02:21.000Z,100871.53
2023-05-04T05:04:50.397Z,100935.28
2023-05-04T05:07:18.848Z,100917.22
2023-05-04T05:09:48.293Z,100931.06
2023-05-04T05:12:17.076Z,100923.78
2023-05-04T05:14:51.899Z,100930.72
2023-05-04T05:17:22.430Z,100925.53
2023-05-04T05:19:53.323Z,100916.81
2023-05-04T05:22:21.585Z,100923.16
2023-05-04T05:24:50.567Z,100918.84
2023-05-04T05:27:20.323Z,100923.06
2023-05-04T05:29:51.027Z,100925.34
2023-05-04T05:32:21.770Z,100932.50
2023-05-04T05:34:54.354Z,100924.72
2023-05-04T05:37:24.709Z,100880.41
2023-05-04T05:39:53.927Z,100930.78
2023-05-04T05:42:23.145Z,100932.44
2023-05-04T05:44:52.472Z,100930.38
2023-05-04T05:47:21.063Z,100938.13
2023-05-04T05:49:53.130Z,100926.47
2023-05-04T05:52:24.357Z,100917.00
2023-05-04T05:54:52.657Z,100923.47
2023-05-04T05:57:21.315Z,100924.09
2023-05-04T05:59:52.901Z,100926.19
2023-05-04T06:02:22.950Z,100932.06
2023-05-04T06:04:53.860Z,100917.84
2023-05-04T06:07:26.960Z,100920.16
2023-05-04T06:09:55.207Z,100924.81
2023-05-04T06:12:23.900Z,100922.53
2023-05-04T06:14:55.106Z,100915.41
2023-05-04T06:17:27.712Z,100911.88
2023-05-04T06:19:57.027Z,100888.03
2023-05-04T06:22:25.906Z,100903.50
2023-05-04T06:25:02.152Z,100907.50
2023-05-04T06:27:40.245Z,100904.34
2023-05-04T06:30:10.839Z,100911.88
2023-05-04T06:32:43.509Z,100899.94
2023-05-04T06:35:14.914Z,100904.94
2023-05-04T06:37:44.551Z,100912.56
2023-05-04T06:40:16.629Z,100910.19
2023-05-04T06:42:47.349Z,100912.91
2023-05-04T06:45:17.886Z,100904.75
2023-05-04T06:47:46.178Z,100909.94
2023-05-04T06:50:16.839Z,100910.19
2023-05-04T06:52:46.464Z,100914.00
2023-05-04T06:55:14.943Z,100905.03
2023-05-04T06:57:43.249Z,100910.84
2023-05-04T07:00:13.302Z,100907.75
2023-05-04T07:02:42.731Z,100910.59
2023-05-04T07:05:12.160Z,100909.81
2023-05-04T07:07:44.633Z,100919.56
2023-05-04T07:10:15.243Z,100901.91
2023-05-04T07:12:43.850Z,100919.03
2023-05-04T07:15:12.408Z,100916.19
2023-05-04T07:17:46.216Z,100905.41
2023-05-04T07:20:16.250Z,100906.41
2023-05-04T07:22:45.849Z,100893.97
2023-05-04T07:25:15.017Z,100882.34
2023-05-04T07:27:45.483Z,100896.97
2023-05-04T07:30:16.721Z,100886.94
2023-05-04T07:32:46.697Z,100885.94
2023-05-04T07:35:15.456Z,100893.56
2023-05-04T07:37:45.433Z,100881.19
2023-05-04T07:40:15.302Z,100885.50
2023-05-04T07:42:47.955Z,100878.84
2023-05-04T07:45:17.440Z,100871.53
2023-05-04T07:47:54.564Z,100874.91
2023-05-04T07:50:23.491Z,100882.81
2023-05-04T07:52:53.073Z,100869.59
2023-05-04T07:55:21.176Z,100875.69
2023-05-04T07:57:49.367Z,100872.97
2023-05-04T08:00:27.137Z,100866.00
2023-05-04T08:02:55.195Z,100872.41
2023-05-04T08:05:27.373Z,100869.03
2023-05-04T08:08:02.319Z,100861.50
2023-05-04T08:10:32.002Z,100871.56
2023-05-04T08:13:01.623Z,100865.63
2023-05-04T08:15:35.115Z,100862.22
2023-05-04T08:18:05.006Z,100853.06
2023-05-04T08:20:34.677Z,100852.53
2023-05-04T08:23:06.926Z,100847.72
2023-05-04T08:25:36.364Z,100833.75
2023-05-04T08:28:07.955Z,100806.97
2023-05-04T08:30:37.539Z,100831.75
2023-05-04T08:33:06.467Z,100837.31
2023-05-04T08:35:38.156Z,100815.44
2023-05-04T08:38:08.764Z,100826.59
2023-05-04T08:40:43.966Z,100817.91
2023-05-04T08:43:16.256Z,100818.97
2023-05-04T08:45:44.884Z,100818.84
2023-05-04T08:48:15.600Z,100816.31
2023-05-04T08:50:44.357Z,100820.53
2023-05-04T08:53:16.326Z,100815.66
2023-05-04T08:55:48.204Z,100813.81
2023-05-04T08:58:20.252Z,100818.66
2023-05-04T09:00:49.141Z,100807.75
2023-05-04T09:03:20.023Z,100794.94
2023-05-04T09:05:51.763Z,100794.09
2023-05-04T09:08:21.917Z,100793.72
2023-05-04T09:10:50.591Z,100787.91
2023-05-04T09:13:19.119Z,100780.41
2023-05-04T09:15:55.978Z,100784.03
2023-05-04T09:18:24.677Z,100783.44
2023-05-04T09:20:53.853Z,100778.28
2023-05-04T09:23:23.333Z,100765.84
2023-05-04T09:25:53.789Z,100772.44
2023-05-04T09:28:34.683Z,100766.56
2023-05-04T09:31:06.321Z,100767.78
2023-05-04T09:33:37.077Z,100764.22
2023-05-04T09:36:15.793Z,100758.81
2023-05-04T09:38:47.621Z,100770.44
2023-05-04T09:41:17.090Z,100769.84
2023-05-04T09:43:47.638Z,100759.06
2023-05-04T09:46:19.434Z,100763.56
2023-05-04T09:48:55.295Z,100764.69
2023-05-04T09:51:27.352Z,100771.75
2023-05-04T09:54:01.792Z,100728.31
2023-05-04T09:56:41.432Z,100757.34
2023-05-04T09:59:13.899Z,100742.13
2023-05-04T10:01:44.802Z,100742.84
2023-05-04T10:04:13.520Z,100734.09
2023-05-04T10:06:48.446Z,100738.38
2023-05-04T10:09:22.699Z,100738.19
2023-05-04T10:11:52.283Z,100727.72
2023-05-04T10:14:20.714Z,100728.75
2023-05-04T10:16:58.511Z,100721.75
2023-05-04T10:19:44.035Z,100717.44
2023-05-04T10:22:22.219Z,100718.50
2023-05-04T10:25:32.005Z,100718.00
2023-05-04T10:28:11.604Z,100712.41
2023-05-04T10:30:41.741Z,100707.47
2023-05-04T10:33:16.500Z,100715.88
2023-05-04T10:35:53.009Z,100718.66
2023-05-04T10:38:21.864Z,100702.63
2023-05-04T10:40:53.701Z,100691.09
2023-05-04T10:43:25.216Z,100693.28
2023-05-04T10:45:56.844Z,100690.00
2023-05-04T10:48:35.309Z,100673.72
2023-05-04T10:51:07.316Z,100687.22
2023-05-04T10:53:35.608Z,100686.41
2023-05-04T10:56:05.759Z,100673.19
2023-05-04T10:58:35.443Z,100665.97
2023-05-04T11:01:13.250Z,100649.09
2023-05-04T11:03:42.124Z,100651.00
2023-05-04T11:06:19.621Z,100643.50
2023-05-04T11:09:01.000Z,100636.97
2023-05-04T11:11:38.015Z,100632.75
2023-05-04T11:14:07.852Z,100621.97
2023-05-04T11:16:36.682Z,100620.09
2023-05-04T11:19:14.361Z,100603.25
2023-05-04T11:21:42.515Z,100600.97
2023-05-04T11:24:10.816Z,100601.53
2023-05-04T11:26:50.298Z,100602.69
2023-05-04T11:29:19.426Z,100593.34
2023-05-04T11:31:55.929Z,100599.91
2023-05-04T11:34:24.424Z,100595.72
2023-05-04T11:36:54.661Z,100578.22
2023-05-04T11:39:22.838Z,100571.69
2023-05-04T11:41:52.356Z,100576.03
2023-05-04T11:44:20.663Z,100576.06
2023-05-04T11:46:51.941Z,100555.19
2023-05-04T11:49:20.577Z,100564.69
2023-05-04T11:51:49.846Z,100567.47
2023-05-04T11:54:24.944Z,100568.50
2023-05-04T11:56:59.023Z,100544.72
2023-05-04T11:59:32.984Z,100549.94
2023-05-04T12:02:03.860Z,100546.44
2023-05-04T12:04:33.318Z,100553.81
2023-05-04T12:07:09.929Z,100538.50
2023-05-04T12:09:45.929Z,100539.25
2023-05-04T12:12:19.181Z,100532.78
2023-05-04T12:14:51.826Z,100540.25
2023-05-04T12:17:21.697Z,100546.59
2023-05-04T12:19:52.757Z,100542.09
2023-05-04T12:22:33.009Z,100526.28
2023-05-04T12:25:01.862Z,100535.59
2023-05-04T12:27:34.042Z,100531.44
2023-05-04T12:30:02.303Z,100529.72
2023-05-04T12:32:32.748Z,100522.16
2023-05-04T12:35:03.943Z,100522.44
2023-05-04T12:37:32.603Z,100518.34
2023-05-04T12:40:01.085Z,100514.81
2023-05-04T12:42:29.866Z,100515.13
2023-05-04T12:45:04.156Z,100512.38
2023-05-04T12:47:32.904Z,100502.97
2023-05-04T12:50:03.676Z,100506.44
2023-05-04T12:52:32.271Z,100521.25
2023-05-04T12:55:01.710Z,100506.44
2023-05-04T12:57:34.815Z,100506.50
2023-05-04T13:00:07.123Z,100504.25
2023-05-04T13:02:36.538Z,100499.72
2023-05-04T13:05:05.491Z,100486.34
2023-05-04T13:07:36.719Z,100477.38
2023-05-04T13:10:05.072Z,100476.47
2023-05-04T13:12:34.095Z,100482.09
2023-05-04T13:15:09.402Z,100484.16
2023-05-04T13:17:47.856Z,100476.88
2023-05-04T13:20:16.746Z,100469.69
2023-05-04T13:22:50.572Z,100458.59
2023-05-04T13:25:18.868Z,100452.22
2023-05-04T13:27:47.145Z,100457.09
2023-05-04T13:30:22.022Z,100448.84
2023-05-04T13:32:51.207Z,100457.91
2023-05-04T13:35:21.141Z,100447.31
2023-05-04T13:37:49.723Z,100453.53
2023-05-04T13:40:18.042Z,100451.00
2023-05-04T13:42:46.920Z,100436.94
2023-05-04T13:45:22.110Z,100441.91
2023-05-04T13:48:06.680Z,100426.94
2023-05-04T13:50:36.355Z,100418.97
2023-05-04T13:53:05.874Z,100419.19
2023-05-04T13:55:34.548Z,100417.66
2023-05-04T13:58:10.431Z,100407.91
2023-05-04T14:00:40.287Z,100405.03
2023-05-04T14:03:13.609Z,100407.16
2023-05-04T14:05:42.057Z,100399.66
2023-05-04T14:08:10.266Z,100378.97
2023-05-04T14:10:38.719Z,100379.38
2023-05-04T14:13:13.981Z,100379.25
2023-05-04T14:15:45.313Z,100377.69
2023-05-04T14:18:18.407Z,100366.38
2023-05-04T14:20:49.415Z,100359.44
2023-05-04T14:23:18.206Z,100351.06
2023-05-04T14:26:05.240Z,100346.69
2023-05-04T14:28:36.510Z,100341.25
2023-05-04T14:31:14.723Z,100339.78
2023-05-04T14:33:47.181Z,100339.84
2023-05-04T14:36:15.456Z,100338.34
2023-05-04T14:38:44.899Z,100346.50
2023-05-04T14:41:16.861Z,100345.63
2023-05-04T14:43:46.159Z,100343.22
2023-05-04T14:46:14.880Z,100331.72
2023-05-04T14:48:55.908Z,100325.44
2023-05-04T14:51:33.671Z,100302.75
2023-05-04T14:54:05.507Z,100318.50
2023-05-04T14:56:59.713Z,100318.53
2023-05-04T14:59:29.441Z,100312.84
2023-05-04T15:01:59.213Z,100311.66
2023-05-04T15:04:33.683Z,100304.25
2023-05-04T15:07:05.597Z,100305.22
2023-05-04T15:09:36.273Z,100252.81
2023-05-04T15:12:10.027Z,100297.25
2023-05-04T15:14:38.306Z,100265.94
2023-05-04T15:17:07.441Z,100289.59
2023-05-04T15:19:41.021Z,100290.81
2023-05-04T15:22:13.960Z,100272.22
2023-05-04T15:24:42.342Z,100294.09
2023-05-04T15:27:11.781Z,100290.63
2023-05-04T15:29:46.143Z,100296.09
2023-05-04T15:32:14.422Z,100292.97
2023-05-04T15:34:53.804Z,100298.09
2023-05-04T15:37:30.350Z,100303.31
2023-05-04T15:40:01.743Z,100295.72
2023-05-04T15:42:30.561Z,100302.94
2023-05-04T15:44:59.952Z,100298.56
2023-05-04T15:47:37.729Z,100302.63
2023-05-04T15:50:10.948Z,100296.78
2023-05-04T15:52:41.684Z,100293.22
2023-05-04T15:55:23.723Z,100301.59
2023-05-04T15:57:55.628Z,100267.66
2023-05-04T16:00:23.826Z,100298.63
2023-05-04T16:02:52.184Z,100288.69
2023-05-04T16:05:24.430Z,100283.00
2023-05-04T16:07:53.362Z,100275.44
2023-05-04T16:10:23.228Z,100224.09
2023-05-04T16:12:53.637Z,100270.50
2023-05-04T16:15:22.432Z,100265.16
2023-05-04T16:17:54.447Z,100243.31
2023-05-04T16:20:24.466Z,100258.59
2023-05-04T16:22:52.403Z,100270.06
2023-05-04T16:25:23.062Z,100257.75
2023-05-04T16:27:52.478Z,100252.63
2023-05-04T16:30:21.807Z,100246.34
2023-05-04T16:32:52.399Z,100236.44
2023-05-04T16:35:26.380Z,100243.75
2023-05-04T16:37:54.586Z,100237.81
2023-05-04T16:40:24.840Z,100240.34
2023-05-04T16:42:53.755Z,100233.38
2023-05-04T16:45:25.340Z,100230.28
2023-05-04T16:47:53.755Z,100227.19
2023-05-04T16:50:24.783Z,100233.50
2023-05-04T16:52:55.567Z,100241.63
2023-05-04T16:55:26.472Z,100240.53
2023-05-04T16:57:59.139Z,100246.56
2023-05-04T17:00:27.372Z,100240.09
2023-05-04T17:02:57.020Z,100240.81
2023-05-04T17:05:26.744Z,100193.38
2023-05-04T17:07:59.014Z,100239.41
2023-05-04T17:10:27.563Z,100233.00
2023-05-04T17:13:00.927Z,100236.94
2023-05-04T17:15:30.418Z,100228.28
2023-05-04T17:17:58.512Z,100235.25
2023-05-04T17:20:31.797Z,100227.47
2023-05-04T17:23:02.195Z,100230.34
2023-05-04T17:25:30.277Z,100222.81
2023-05-04T17:27:59.413Z,100207.75
2023-05-04T17:30:28.884Z,100220.97
2023-05-04T17:32:59.431Z,100210.72
2023-05-04T17:35:30.042Z,100195.00
2023-05-04T17:37:59.271Z,100210.81
2023-05-04T17:40:31.181Z,100213.91
2023-05-04T17:43:01.120Z,100229.75
2023-05-04T17:45:31.923Z,100232.47
2023-05-04T17:48:02.216Z,100238.00
2023-05-04T17:50:30.879Z,100223.97
2023-05-04T17:53:02.258Z,100227.09
2023-05-04T17:55:32.877Z,100221.91
2023-05-04T17:58:05.547Z,100200.16
2023-05-04T18:00:34.570Z,100227.25
2023-05-04T18:03:04.011Z,100233.22
2023-05-04T18:05:42.869Z,100234.34
2023-05-04T18:08:11.728Z,100234.31
2023-05-04T18:10:43.481Z,100245.91
2023-05-04T18:13:11.868Z,100238.03
2023-05-04T18:15:41.389Z,100252.59
2023-05-04T18:18:11.719Z,100243.56
2023-05-04T18:20:41.949Z,100246.19
2023-05-04T18:23:12.438Z,100244.78
2023-05-04T18:25:46.797Z,100253.97
2023-05-04T18:28:15.484Z,100246.03
2023-05-04T18:30:44.417Z,100253.53
2023-05-04T18:33:13.526Z,100265.53
2023-05-04T18:35:42.883Z,100242.59
2023-05-04T18:38:11.548Z,100254.69
2023-05-04T18:40:41.398Z,100259.28
2023-05-04T18:43:09.514Z,100255.84
2023-05-04T18:45:38.042Z,100257.09
2023-05-04T18:48:07.710Z,100258.00
2023-05-04T18:50:36.978Z,100259.44
2023-05-04T18:53:05.851Z,100267.78
2023-05-04T18:55:35.921Z,100277.22
2023-05-04T18:58:05.954Z,100278.09
2023-05-04T19:00:45.303Z,100288.38
2023-05-04T19:03:17.983Z,100290.94
2023-05-04T19:05:46.087Z,100288.97
2023-05-04T19:08:15.626Z,100284.66
2023-05-04T19:10:43.819Z,100294.88
2023-05-04T19:13:14.391Z,100295.44
2023-05-04T19:15:51.120Z,100305.09
2023-05-04T19:18:20.466Z,100312.53
2023-05-04T19:20:51.461Z,100307.53
2023-05-04T19:23:19.339Z,100307.53
2023-05-04T19:25:49.508Z,100317.44
2023-05-04T19:28:23.269Z,100316.06
2023-05-04T19:30:57.078Z,100312.72
2023-05-04T19:33:40.297Z,100314.34
2023-05-04T19:36:17.000Z,100312.28
2023-05-04T19:38:46.679Z,100308.97
2023-05-04T19:41:16.271Z,100321.88
2023-05-04T19:43:46.925Z,100324.88
2023-05-04T19:46:16.585Z,100318.16
2023-05-04T19:48:47.195Z,100319.44
2023-05-04T19:51:18.403Z,100325.97
2023-05-04T19:53:46.807Z,100321.09
2023-05-04T19:56:19.893Z,100328.84
2023-05-04T19:58:52.951Z,100329.22
2023-05-04T20:01:22.635Z,100308.00
2023-05-04T20:03:51.492Z,100318.06
2023-05-04T20:06:21.411Z,100313.16
2023-05-04T20:09:02.459Z,100316.16
2023-05-04T20:11:33.754Z,100326.59
2023-05-04T20:14:06.721Z,100323.88
2023-05-04T20:16:35.201Z,100322.47
2023-05-04T20:19:13.043Z,100322.47
2023-05-04T20:21:41.025Z,100312.81
2023-05-04T20:24:20.399Z,100324.44
2023-05-04T20:26:48.644Z,100327.81
2023-05-04T20:29:21.031Z,100321.97
2023-05-04T20:31:51.204Z,100331.59
2023-05-04T20:34:22.393Z,100311.25
2023-05-04T20:36:51.334Z,100328.00
2023-05-04T20:39:21.553Z,100330.75
2023-05-04T20:41:50.502Z,100309.16
2023-05-04T20:44:23.590Z,100313.72
2023-05-04T20:46:52.282Z,100327.25
2023-05-04T20:49:23.363Z,100328.00
2023-05-04T20:51:54.465Z,100326.78
2023-05-04T20:54:24.225Z,100329.41
2023-05-04T20:57:00.836Z,100323.09
2023-05-04T20:59:34.830Z,100324.63
2023-05-04T21:02:05.635Z,100310.22
2023-05-04T21:04:33.796Z,100316.72
2023-05-04T21:07:03.314Z,100317.94
2023-05-04T21:09:31.392Z,100320.84
2023-05-04T21:12:04.736Z,100304.69
2023-05-04T21:14:34.431Z,100305.63
2023-05-04T21:17:04.839Z,100306.91
2023-05-04T21:19:33.911Z,100302.53
2023-05-04T21:22:07.528Z,100299.06
2023-05-04T21:24:36.365Z,100310.50
2023-05-04T21:27:10.785Z,100309.75
2023-05-04T21:29:41.896Z,100301.47
2023-05-04T21:32:11.012Z,100310.19
2023-05-04T21:34:39.270Z,100303.50
2023-05-04T21:37:14.589Z,100307.25
2023-05-04T21:39:42.887Z,100304.75
2023-05-04T21:42:12.935Z,100308.38
2023-05-04T21:44:44.474Z,100301.59
2023-05-04T21:47:12.606Z,100300.47
2023-05-04T21:49:40.789Z,100307.06
2023-05-04T21:52:11.057Z,100319.50
2023-05-04T21:54:39.219Z,100310.22
2023-05-04T21:57:07.051Z,100316.94
2023-05-04T21:59:35.001Z,100316.59
2023-05-04T22:02:05.633Z,100323.25
2023-05-04T22:04:35.206Z,100317.94
2023-05-04T22:07:03.607Z,100314.03
2023-05-04T22:09:32.785Z,100309.63
2023-05-04T22:12:00.595Z,100312.00
2023-05-04T22:14:29.295Z,100306.72
2023-05-04T22:16:58.561Z,100315.41
2023-05-04T22:19:29.649Z,100309.44
2023-05-04T22:21:58.871Z,100307.09
2023-05-04T22:24:29.791Z,100299.53
2023-05-04T22:26:58.260Z,100308.47
2023-05-04T22:29:30.850Z,100295.41
2023-05-04T22:32:03.203Z,100294.81
2023-05-04T22:34:33.809Z,100306.50
2023-05-04T22:37:04.783Z,100309.31
2023-05-04T22:39:33.528Z,100291.31
2023-05-04T22:42:03.388Z,100300.06
2023-05-04T22:44:33.969Z,100310.44
2023-05-04T22:47:04.263Z,100315.19
2023-05-04T22:49:35.770Z,100314.00
2023-05-04T22:52:06.003Z,100310.78
2023-05-04T22:54:35.584Z,100302.34
2023-05-04T22:57:03.602Z,100308.16
2023-05-04T22:59:31.731Z,100311.25
2023-05-04T23:01:59.933Z,100317.09
2023-05-04T23:04:30.049Z,100319.53
2023-05-04T23:06:59.863Z,100319.53
2023-05-04T23:09:28.984Z,100314.81
2023-05-04T23:11:58.749Z,100320.97
2023-05-04T23:14:27.452Z,100321.19
2023-05-04T23:16:56.594Z,100317.41
2023-05-04T23:19:24.518Z,100322.28
2023-05-04T23:21:54.166Z,100314.91
2023-05-04T23:24:24.875Z,100317.25
2023-05-04T23:26:56.000Z,100312.03
2023-05-04T23:29:24.082Z,100318.63
2023-05-04T23:31:52.717Z,100314.97
2023-05-04T23:34:21.898Z,100309.41
2023-05-04T23:36:50.434Z,100308.00
2023-05-04T23:39:18.922Z,100304.44
2023-05-04T23:41:48.449Z,100307.03
2023-05-04T23:44:17.869Z,100291.34
2023-05-04T23:46:47.881Z,100301.13
2023-05-04T23:49:19.047Z,100295.88
2023-05-04T23:51:47.206Z,100294.88
2023-05-04T23:54:19.729Z,100302.69
2023-05-04T23:56:51.534Z,100304.34
2023-05-04T23:59:19.984Z,100306.13
